createdAt,value
2022-10-07T00:01:10.148Z,11.91
2022-10-07T00:03:38.023Z,11.95
2022-10-07T00:06:08.604Z,12.01
2022-10-07T00:08:38.952Z,12.07
2022-10-07T00:11:09.048Z,12.10
2022-10-07T00:13:39.721Z,12.13
2022-10-07T00:16:10.385Z,12.19
2022-10-07T00:18:39.909Z,12.21
2022-10-07T00:21:10.631Z,12.23
2022-10-07T00:23:42.067Z,12.24
2022-10-07T00:26:12.698Z,12.27
2022-10-07T00:28:40.838Z,12.28
2022-10-07T00:31:16.794Z,12.32
2022-10-07T00:33:45.284Z,12.34
2022-10-07T00:36:17.184Z,12.38
2022-10-07T00:38:51.523Z,12.42
2022-10-07T00:41:23.207Z,12.46
2022-10-07T00:43:50.962Z,12.49
2022-10-07T00:46:26.797Z,12.54
2022-10-07T00:48:55.094Z,12.56
2022-10-07T00:51:23.799Z,12.58
2022-10-07T00:53:55.902Z,12.63
2022-10-07T00:56:26.858Z,12.67
2022-10-07T00:58:55.030Z,12.71
2022-10-07T01:01:24.475Z,12.71
2022-10-07T01:03:52.314Z,12.75
2022-10-07T01:06:21.208Z,12.79
2022-10-07T01:08:52.757Z,12.86
2022-10-07T01:11:36.586Z,12.87
2022-10-07T01:14:10.182Z,12.92
2022-10-07T01:16:48.878Z,12.95
2022-10-07T01:19:40.195Z,13.00
2022-10-07T01:22:23.146Z,13.03
2022-10-07T01:25:02.160Z,13.07
2022-10-07T01:27:33.836Z,13.12
2022-10-07T01:30:05.437Z,13.14
2022-10-07T01:32:37.697Z,13.17
2022-10-07T01:35:11.096Z,13.21
2022-10-07T01:37:45.025Z,13.27
2022-10-07T01:40:15.893Z,13.29
2022-10-07T01:42:47.389Z,13.31
2022-10-07T01:45:21.578Z,13.33
2022-10-07T01:47:49.726Z,13.33
2022-10-07T01:50:21.670Z,13.38
2022-10-07T01:53:12.812Z,13.40
2022-10-07T01:55:52.655Z,13.40
2022-10-07T01:58:34.286Z,13.41
2022-10-07T02:01:13.103Z,13.38
2022-10-07T02:04:21.313Z,13.43
2022-10-07T02:06:58.285Z,13.42
2022-10-07T02:09:34.476Z,13.43
2022-10-07T02:12:10.770Z,13.42
2022-10-07T02:14:45.089Z,13.40
2022-10-07T02:17:19.006Z,13.41
2022-10-07T02:19:53.366Z,13.43
2022-10-07T02:22:24.974Z,13.42
2022-10-07T02:24:55.495Z,13.48
2022-10-07T02:27:28.499Z,13.51
2022-10-07T02:30:02.965Z,13.52
2022-10-07T02:32:34.418Z,13.51
2022-10-07T02:35:13.119Z,13.52
2022-10-07T02:37:42.827Z,13.53
2022-10-07T02:40:12.369Z,13.56
2022-10-07T02:42:48.894Z,13.50
2022-10-07T02:45:26.774Z,13.52
2022-10-07T02:48:00.972Z,13.57
2022-10-07T02:50:37.962Z,13.56
2022-10-07T02:53:07.482Z,13.55
2022-10-07T02:55:36.228Z,13.59
2022-10-07T02:58:08.601Z,13.62
2022-10-07T03:00:44.149Z,13.64
2022-10-07T03:03:12.595Z,13.63
2022-10-07T03:05:49.867Z,13.65
2022-10-07T03:08:18.954Z,13.68
2022-10-07T03:10:47.642Z,13.65
2022-10-07T03:13:17.017Z,13.67
2022-10-07T03:15:51.935Z,13.70
2022-10-07T03:18:28.647Z,13.69
2022-10-07T03:21:05.480Z,13.69
2022-10-07T03:23:33.606Z,13.67
2022-10-07T03:26:01.795Z,13.70
2022-10-07T03:28:33.333Z,13.71
2022-10-07T03:31:07.159Z,13.70
2022-10-07T03:33:37.544Z,13.70
2022-10-07T03:36:08.198Z,13.72
2022-10-07T03:38:37.190Z,13.73
2022-10-07T03:41:06.250Z,13.70
2022-10-07T03:43:35.319Z,13.70
2022-10-07T03:46:07.600Z,13.71
2022-10-07T03:48:37.986Z,13.70
2022-10-07T03:51:05.948Z,13.72
2022-10-07T03:53:39.158Z,13.71
2022-10-07T03:56:07.776Z,13.72
2022-10-07T03:58:37.097Z,13.73
2022-10-07T04:01:10.594Z,13.69
2022-10-07T04:03:42.707Z,13.64
2022-10-07T04:06:10.861Z,13.66
2022-10-07T04:08:41.084Z,13.68
2022-10-07T04:11:09.478Z,13.69
2022-10-07T04:13:40.917Z,13.65
2022-10-07T04:16:13.167Z,13.66
2022-10-07T04:18:42.142Z,13.65
2022-10-07T04:21:11.324Z,13.65
2022-10-07T04:23:41.218Z,13.68
2022-10-07T04:26:10.214Z,13.69
2022-10-07T04:28:41.203Z,13.68
2022-10-07T04:31:13.828Z,13.67
2022-10-07T04:33:46.235Z,13.61
2022-10-07T04:36:17.847Z,13.63
2022-10-07T04:38:52.286Z,13.66
2022-10-07T04:41:25.623Z,13.66
2022-10-07T04:43:57.871Z,13.69
2022-10-07T04:46:29.942Z,13.69
2022-10-07T04:49:03.295Z,13.68
2022-10-07T04:51:32.041Z,13.68
2022-10-07T04:54:01.533Z,13.69
2022-10-07T04:56:44.651Z,13.70
2022-10-07T04:59:14.871Z,13.70
2022-10-07T05:01:45.356Z,13.71
2022-10-07T05:04:13.835Z,13.71
2022-10-07T05:06:41.569Z,13.69
2022-10-07T05:09:12.018Z,13.69
2022-10-07T05:11:43.170Z,13.71
2022-10-07T05:14:21.624Z,13.67
2022-10-07T05:16:53.910Z,13.67
2022-10-07T05:19:26.182Z,13.65
2022-10-07T05:21:55.005Z,13.63
2022-10-07T05:24:22.998Z,13.58
2022-10-07T05:26:51.645Z,13.56
2022-10-07T05:29:20.074Z,13.48
2022-10-07T05:31:52.875Z,13.47
2022-10-07T05:34:24.906Z,13.43
2022-10-07T05:36:54.227Z,13.42
2022-10-07T05:39:23.012Z,13.37
2022-10-07T05:41:55.438Z,13.34
2022-10-07T05:44:28.917Z,13.32
2022-10-07T05:46:59.695Z,13.32
2022-10-07T05:49:28.176Z,13.34
2022-10-07T05:51:56.979Z,13.35
2022-10-07T05:54:24.924Z,13.32
2022-10-07T05:56:54.923Z,13.32
2022-10-07T05:59:24.430Z,13.32
2022-10-07T06:01:57.461Z,13.33
2022-10-07T06:04:28.350Z,13.33
2022-10-07T06:06:56.857Z,13.36
2022-10-07T06:09:42.131Z,13.38
2022-10-07T06:12:32.572Z,13.42
2022-10-07T06:15:04.543Z,13.48
2022-10-07T06:17:32.483Z,13.59
2022-10-07T06:20:04.222Z,13.65
2022-10-07T06:22:32.111Z,13.69
2022-10-07T06:25:02.719Z,13.66
2022-10-07T06:27:32.761Z,13.56
2022-10-07T06:30:01.085Z,13.72
2022-10-07T06:32:30.282Z,13.77
2022-10-07T06:34:58.366Z,13.72
2022-10-07T06:37:30.526Z,13.85
2022-10-07T06:39:59.860Z,13.99
2022-10-07T06:42:30.209Z,14.12
2022-10-07T06:45:17.278Z,14.22
2022-10-07T06:47:46.098Z,14.34
2022-10-07T06:50:15.071Z,14.45
2022-10-07T06:52:45.397Z,14.61
2022-10-07T06:55:13.841Z,14.71
2022-10-07T06:57:56.169Z,14.58
2022-10-07T07:00:25.318Z,14.83
2022-10-07T07:02:53.003Z,15.00
2022-10-07T07:05:21.133Z,15.16
2022-10-07T07:07:50.548Z,15.23
2022-10-07T07:10:19.398Z,15.25
2022-10-07T07:12:53.792Z,15.27
2022-10-07T07:15:22.871Z,15.30
2022-10-07T07:17:50.570Z,15.36
2022-10-07T07:20:19.529Z,15.31
2022-10-07T07:22:47.618Z,15.37
2022-10-07T07:25:16.889Z,15.32
2022-10-07T07:27:46.553Z,15.22
2022-10-07T07:30:15.835Z,15.08
2022-10-07T07:32:45.954Z,15.00
2022-10-07T07:35:14.072Z,15.04
2022-10-07T07:37:42.266Z,15.05
2022-10-07T07:40:11.041Z,15.12
2022-10-07T07:42:40.581Z,15.23
2022-10-07T07:45:09.088Z,15.27
2022-10-07T07:47:37.070Z,15.35
2022-10-07T07:50:06.610Z,15.51
2022-10-07T07:52:35.088Z,15.68
2022-10-07T07:55:05.619Z,15.78
2022-10-07T07:57:33.405Z,15.88
2022-10-07T08:00:08.225Z,15.89
2022-10-07T08:02:42.057Z,15.70
2022-10-07T08:05:14.107Z,15.51
2022-10-07T08:07:41.950Z,15.57
2022-10-07T08:10:11.627Z,15.63
2022-10-07T08:12:40.213Z,15.76
2022-10-07T08:15:11.487Z,15.84
2022-10-07T08:17:40.210Z,15.94
2022-10-07T08:20:10.766Z,16.09
2022-10-07T08:22:39.309Z,16.21
2022-10-07T08:25:08.410Z,16.27
2022-10-07T08:27:36.455Z,16.25
2022-10-07T08:30:05.222Z,16.31
2022-10-07T08:32:34.816Z,16.32
2022-10-07T08:35:02.513Z,16.38
2022-10-07T08:37:30.827Z,16.59
2022-10-07T08:39:58.889Z,16.78
2022-10-07T08:42:31.995Z,16.94
2022-10-07T08:45:00.736Z,17.10
2022-10-07T08:47:34.946Z,17.25
2022-10-07T08:50:09.797Z,17.43
2022-10-07T08:52:49.029Z,17.62
2022-10-07T08:55:20.233Z,17.70
2022-10-07T08:58:11.127Z,17.85
2022-10-07T09:00:44.173Z,17.95
2022-10-07T09:03:25.307Z,18.14
2022-10-07T09:05:58.714Z,18.37
2022-10-07T09:08:32.878Z,18.52
2022-10-07T09:11:15.684Z,18.58
2022-10-07T09:13:48.086Z,18.55
2022-10-07T09:16:23.294Z,18.66
2022-10-07T09:18:54.239Z,18.80
2022-10-07T09:21:30.269Z,18.94
2022-10-07T09:24:15.212Z,18.97
2022-10-07T09:26:44.218Z,18.73
2022-10-07T09:29:12.457Z,18.63
2022-10-07T09:31:40.901Z,18.81
2022-10-07T09:34:19.801Z,18.83
2022-10-07T09:37:21.882Z,18.86
2022-10-07T09:39:51.427Z,19.03
2022-10-07T09:42:29.875Z,19.22
2022-10-07T09:45:01.170Z,19.41
2022-10-07T09:47:33.494Z,19.62
2022-10-07T09:50:01.202Z,19.73
2022-10-07T09:52:32.532Z,20.17
2022-10-07T09:55:32.979Z,20.82
2022-10-07T09:58:02.385Z,20.51
2022-10-07T10:00:31.495Z,20.21
2022-10-07T10:03:06.430Z,20.29
2022-10-07T10:05:36.686Z,20.13
2022-10-07T10:08:08.338Z,19.47
2022-10-07T10:10:37.897Z,19.36
2022-10-07T10:13:07.371Z,19.74
2022-10-07T10:15:43.840Z,20.08
2022-10-07T10:18:38.477Z,20.41
2022-10-07T10:21:27.349Z,20.57
2022-10-07T10:23:59.011Z,20.61
2022-10-07T10:26:45.095Z,20.52
2022-10-07T10:29:40.078Z,20.02
2022-10-07T10:32:39.675Z,20.36
2022-10-07T10:35:14.995Z,20.45
2022-10-07T10:37:59.269Z,20.40
2022-10-07T10:40:34.314Z,19.96
2022-10-07T10:43:16.378Z,20.20
2022-10-07T10:46:07.132Z,20.53
2022-10-07T10:48:44.033Z,20.52
2022-10-07T10:51:32.121Z,20.57
2022-10-07T10:54:18.106Z,20.38
2022-10-07T10:56:53.919Z,20.27
2022-10-07T10:59:52.408Z,19.94
2022-10-07T11:02:49.502Z,20.38
2022-10-07T11:05:21.848Z,20.47
2022-10-07T11:07:54.845Z,20.61
2022-10-07T11:10:25.240Z,20.66
2022-10-07T11:12:58.853Z,20.71
2022-10-07T11:15:32.687Z,20.68
2022-10-07T11:18:05.581Z,20.05
2022-10-07T11:20:38.834Z,20.27
2022-10-07T11:23:20.696Z,20.30
2022-10-07T11:25:53.965Z,19.68
2022-10-07T11:28:26.923Z,19.83
2022-10-07T11:31:04.694Z,19.91
2022-10-07T11:33:43.188Z,20.05
2022-10-07T11:36:16.897Z,19.77
2022-10-07T11:38:44.993Z,19.88
2022-10-07T11:41:20.894Z,19.25
2022-10-07T11:43:56.847Z,18.90
2022-10-07T11:46:29.712Z,19.36
2022-10-07T11:49:02.429Z,19.97
2022-10-07T11:51:35.590Z,20.20
2022-10-07T11:54:06.423Z,20.38
2022-10-07T11:56:39.553Z,20.57
2022-10-07T11:59:08.881Z,20.78
2022-10-07T12:01:52.931Z,20.71
2022-10-07T12:04:38.230Z,20.65
2022-10-07T12:07:42.613Z,20.83
2022-10-07T12:10:24.497Z,21.04
2022-10-07T12:12:55.508Z,20.91
2022-10-07T12:15:37.199Z,20.80
2022-10-07T12:18:30.310Z,20.50
2022-10-07T12:21:07.232Z,20.43
2022-10-07T12:23:43.042Z,20.50
2022-10-07T12:26:52.330Z,20.32
2022-10-07T12:29:23.749Z,20.41
2022-10-07T12:31:53.475Z,19.87
2022-10-07T12:34:35.141Z,19.69
2022-10-07T12:37:46.913Z,19.69
2022-10-07T12:40:20.839Z,19.02
2022-10-07T12:42:56.705Z,19.06
2022-10-07T12:45:27.880Z,19.21
2022-10-07T12:48:00.515Z,19.10
2022-10-07T12:50:31.734Z,19.20
2022-10-07T12:53:03.569Z,19.29
2022-10-07T12:55:36.964Z,19.28
2022-10-07T12:58:34.829Z,19.18
2022-10-07T13:01:17.261Z,19.14
2022-10-07T13:04:11.198Z,19.38
2022-10-07T13:07:09.425Z,19.10
2022-10-07T13:10:09.543Z,18.97
2022-10-07T13:12:44.909Z,19.04
2022-10-07T13:15:31.406Z,19.14
2022-10-07T13:18:09.911Z,19.18
2022-10-07T13:20:56.933Z,19.20
2022-10-07T13:23:27.926Z,19.19
2022-10-07T13:25:58.491Z,19.23
2022-10-07T13:28:31.963Z,19.25
2022-10-07T13:31:14.484Z,19.26
2022-10-07T13:33:43.199Z,19.14
2022-10-07T13:36:20.781Z,19.11
2022-10-07T13:38:50.355Z,19.09
2022-10-07T13:41:24.984Z,18.82
2022-10-07T13:43:56.069Z,19.01
2022-10-07T13:46:27.193Z,18.80
2022-10-07T13:48:56.278Z,18.81
2022-10-07T13:51:31.556Z,18.76
2022-10-07T13:54:01.557Z,18.65
2022-10-07T13:56:33.644Z,18.73
2022-10-07T13:59:02.093Z,18.77
2022-10-07T14:01:33.189Z,18.67
2022-10-07T14:04:09.947Z,18.75
2022-10-07T14:06:48.581Z,18.67
2022-10-07T14:09:26.440Z,18.46
2022-10-07T14:11:58.739Z,18.63
2022-10-07T14:14:32.435Z,18.44
2022-10-07T14:17:00.749Z,18.38
2022-10-07T14:19:32.819Z,18.16
2022-10-07T14:22:15.959Z,18.09
2022-10-07T14:24:51.487Z,17.81
2022-10-07T14:27:41.113Z,17.75
2022-10-07T14:30:59.873Z,17.71
2022-10-07T14:33:53.529Z,17.67
2022-10-07T14:36:22.918Z,17.80
2022-10-07T14:38:55.246Z,17.92
2022-10-07T14:41:24.795Z,18.03
2022-10-07T14:43:52.920Z,18.05
2022-10-07T14:46:22.682Z,17.89
2022-10-07T14:48:51.191Z,17.52
2022-10-07T14:51:23.310Z,17.32
2022-10-07T14:53:55.426Z,17.62
2022-10-07T14:56:27.093Z,17.24
2022-10-07T14:58:55.881Z,17.12
2022-10-07T15:01:24.627Z,17.40
2022-10-07T15:03:52.725Z,17.43
2022-10-07T15:06:21.584Z,17.28
2022-10-07T15:08:49.738Z,17.45
2022-10-07T15:11:21.079Z,17.49
2022-10-07T15:13:49.863Z,17.36
2022-10-07T15:16:19.552Z,17.27
2022-10-07T15:18:52.155Z,17.04
2022-10-07T15:21:21.904Z,17.10
2022-10-07T15:23:52.209Z,17.15
2022-10-07T15:26:24.290Z,16.95
2022-10-07T15:28:54.305Z,16.69
2022-10-07T15:31:23.220Z,16.58
2022-10-07T15:33:51.499Z,16.45
2022-10-07T15:36:20.060Z,16.49
2022-10-07T15:38:47.751Z,16.51
2022-10-07T15:41:31.971Z,16.37
2022-10-07T15:44:00.925Z,16.26
2022-10-07T15:46:29.501Z,16.25
2022-10-07T15:48:57.987Z,16.42
2022-10-07T15:51:27.597Z,16.37
2022-10-07T15:53:55.358Z,16.32
2022-10-07T15:56:25.322Z,16.29
2022-10-07T15:58:54.367Z,16.20
2022-10-07T16:01:22.220Z,16.14
2022-10-07T16:03:51.030Z,16.18
2022-10-07T16:06:21.366Z,16.24
2022-10-07T16:08:49.466Z,16.14
2022-10-07T16:11:17.879Z,16.24
2022-10-07T16:13:47.746Z,16.24
2022-10-07T16:16:20.143Z,16.18
2022-10-07T16:18:50.186Z,16.18
2022-10-07T16:21:21.589Z,16.33
2022-10-07T16:23:51.242Z,16.38
2022-10-07T16:26:21.351Z,16.39
2022-10-07T16:29:08.829Z,16.18
2022-10-07T16:31:41.264Z,16.18
2022-10-07T16:34:10.893Z,15.96
2022-10-07T16:36:43.351Z,16.14
2022-10-07T16:39:15.673Z,16.05
2022-10-07T16:41:44.077Z,15.88
2022-10-07T16:44:12.093Z,15.83
2022-10-07T16:46:42.082Z,15.89
2022-10-07T16:49:13.693Z,15.89
2022-10-07T16:51:41.783Z,15.92
2022-10-07T16:54:13.056Z,15.89
2022-10-07T16:56:42.146Z,15.80
2022-10-07T16:59:12.837Z,15.68
2022-10-07T17:01:42.192Z,15.48
2022-10-07T17:04:10.665Z,15.57
2022-10-07T17:06:38.418Z,15.55
2022-10-07T17:09:06.344Z,15.62
2022-10-07T17:11:35.588Z,15.55
2022-10-07T17:14:05.512Z,15.60
2022-10-07T17:16:36.828Z,15.29
2022-10-07T17:19:07.003Z,15.25
2022-10-07T17:21:36.067Z,15.35
2022-10-07T17:24:04.287Z,15.53
2022-10-07T17:26:32.587Z,15.49
2022-10-07T17:29:03.096Z,15.54
2022-10-07T17:31:32.272Z,15.44
2022-10-07T17:34:01.694Z,15.58
2022-10-07T17:36:31.121Z,15.57
2022-10-07T17:38:59.306Z,15.50
2022-10-07T17:41:28.950Z,15.45
2022-10-07T17:43:58.175Z,15.50
2022-10-07T17:46:27.256Z,15.52
2022-10-07T17:48:56.629Z,15.51
2022-10-07T17:51:27.714Z,15.46
2022-10-07T17:53:58.605Z,15.38
2022-10-07T17:56:27.921Z,15.32
2022-10-07T17:58:56.810Z,15.26
2022-10-07T18:01:27.341Z,15.13
2022-10-07T18:03:57.411Z,15.15
2022-10-07T18:06:26.389Z,15.10
2022-10-07T18:08:54.651Z,15.04
2022-10-07T18:11:44.044Z,14.99
2022-10-07T18:14:29.473Z,14.92
2022-10-07T18:16:57.417Z,14.90
2022-10-07T18:19:26.448Z,14.79
2022-10-07T18:21:56.264Z,14.70
2022-10-07T18:24:27.374Z,14.64
2022-10-07T18:26:58.891Z,14.58
2022-10-07T18:29:26.955Z,14.51
2022-10-07T18:31:55.588Z,14.46
2022-10-07T18:34:23.766Z,14.42
2022-10-07T18:36:56.240Z,14.39
2022-10-07T18:39:24.970Z,14.35
2022-10-07T18:41:53.010Z,14.32
2022-10-07T18:44:22.481Z,14.28
2022-10-07T18:46:50.766Z,14.25
2022-10-07T18:49:18.495Z,14.24
2022-10-07T18:51:47.222Z,14.18
2022-10-07T18:54:15.078Z,14.14
2022-10-07T18:56:43.113Z,14.08
2022-10-07T18:59:13.120Z,14.04
2022-10-07T19:01:44.357Z,14.00
2022-10-07T19:04:15.518Z,13.98
2022-10-07T19:06:45.219Z,13.93
2022-10-07T19:09:17.717Z,13.82
2022-10-07T19:11:46.345Z,13.67
2022-10-07T19:14:13.670Z,13.56
2022-10-07T19:16:44.606Z,13.45
2022-10-07T19:19:15.474Z,13.30
2022-10-07T19:21:43.717Z,13.23
2022-10-07T19:24:11.569Z,13.17
2022-10-07T19:26:42.264Z,13.19
2022-10-07T19:29:11.322Z,13.25
2022-10-07T19:31:42.160Z,13.33
2022-10-07T19:34:13.811Z,13.35
2022-10-07T19:36:47.355Z,13.36
2022-10-07T19:39:16.322Z,13.40
2022-10-07T19:41:45.103Z,13.21
2022-10-07T19:44:13.477Z,12.94
2022-10-07T19:46:42.086Z,12.99
2022-10-07T19:49:11.905Z,12.84
2022-10-07T19:51:42.186Z,12.70
2022-10-07T19:54:10.597Z,12.60
2022-10-07T19:56:39.868Z,12.48
2022-10-07T19:59:09.529Z,12.13
2022-10-07T20:01:39.321Z,12.08
2022-10-07T20:04:09.285Z,12.15
2022-10-07T20:06:38.768Z,12.12
2022-10-07T20:09:08.497Z,12.12
2022-10-07T20:11:36.723Z,12.15
2022-10-07T20:14:06.083Z,12.14
2022-10-07T20:16:34.969Z,12.13
2022-10-07T20:19:06.794Z,12.13
2022-10-07T20:21:36.627Z,12.11
2022-10-07T20:24:07.454Z,12.01
2022-10-07T20:26:36.990Z,12.02
2022-10-07T20:29:07.337Z,12.05
2022-10-07T20:31:36.938Z,12.04
2022-10-07T20:34:06.131Z,11.89
2022-10-07T20:36:35.866Z,11.85
2022-10-07T20:39:25.358Z,11.63
2022-10-07T20:42:12.036Z,11.42
2022-10-07T20:44:40.268Z,11.45
2022-10-07T20:47:10.297Z,11.45
2022-10-07T20:49:41.293Z,11.39
2022-10-07T20:52:11.695Z,11.39
2022-10-07T20:54:40.735Z,11.36
2022-10-07T20:57:08.761Z,11.39
2022-10-07T20:59:36.411Z,11.36
2022-10-07T21:02:09.381Z,11.32
2022-10-07T21:04:37.652Z,11.25
2022-10-07T21:07:05.985Z,11.27
2022-10-07T21:09:36.228Z,11.29
2022-10-07T21:12:07.754Z,11.33
2022-10-07T21:14:35.477Z,11.34
2022-10-07T21:17:03.815Z,11.37
2022-10-07T21:19:32.647Z,11.42
2022-10-07T21:22:00.630Z,11.44
2022-10-07T21:24:28.685Z,11.53
2022-10-07T21:26:56.667Z,11.52
2022-10-07T21:29:25.787Z,11.48
2022-10-07T21:31:53.440Z,11.47
2022-10-07T21:34:21.693Z,11.48
2022-10-07T21:36:53.893Z,11.51
2022-10-07T21:39:22.369Z,11.52
2022-10-07T21:41:50.548Z,11.53
2022-10-07T21:44:18.291Z,11.49
2022-10-07T21:46:47.616Z,11.51
2022-10-07T21:49:16.295Z,11.57
2022-10-07T21:51:44.946Z,11.60
2022-10-07T21:54:15.252Z,11.78
2022-10-07T21:56:46.078Z,11.86
2022-10-07T21:59:14.122Z,11.88
2022-10-07T22:01:43.189Z,11.87
2022-10-07T22:04:17.695Z,11.89
2022-10-07T22:07:04.136Z,11.81
2022-10-07T22:09:31.947Z,11.73
2022-10-07T22:11:59.985Z,11.60
2022-10-07T22:14:27.773Z,11.43
2022-10-07T22:16:56.322Z,11.38
2022-10-07T22:19:25.419Z,11.35
2022-10-07T22:21:53.462Z,11.28
2022-10-07T22:24:21.655Z,11.24
2022-10-07T22:26:51.136Z,11.28
2022-10-07T22:29:22.643Z,11.19
2022-10-07T22:31:50.426Z,11.13
2022-10-07T22:34:36.229Z,11.11
2022-10-07T22:37:06.108Z,11.03
2022-10-07T22:39:33.815Z,10.92
2022-10-07T22:42:03.853Z,10.91
2022-10-07T22:44:31.757Z,10.87
2022-10-07T22:47:00.389Z,10.87
2022-10-07T22:49:30.170Z,10.80
2022-10-07T22:51:59.828Z,10.86
2022-10-07T22:54:29.387Z,10.79
2022-10-07T22:56:57.361Z,10.76
2022-10-07T22:59:25.007Z,10.68
2022-10-07T23:01:52.946Z,10.57
2022-10-07T23:04:21.518Z,10.57
2022-10-07T23:06:49.837Z,10.60
2022-10-07T23:09:17.489Z,10.63
2022-10-07T23:11:46.796Z,10.63
2022-10-07T23:14:14.487Z,10.68
2022-10-07T23:16:43.867Z,10.63
2022-10-07T23:19:11.683Z,10.68
2022-10-07T23:21:39.465Z,10.64
2022-10-07T23:24:09.800Z,10.70
2022-10-07T23:26:38.341Z,10.78
2022-10-07T23:29:08.554Z,10.78
2022-10-07T23:31:36.389Z,10.78
2022-10-07T23:34:06.361Z,10.74
2022-10-07T23:36:34.741Z,10.61
2022-10-07T23:39:02.791Z,10.60
2022-10-07T23:41:33.028Z,10.58
2022-10-07T23:44:03.095Z,10.50
2022-10-07T23:46:35.836Z,10.65
2022-10-07T23:49:05.390Z,10.66
2022-10-07T23:51:34.292Z,10.60
2022-10-07T23:54:04.245Z,10.63
2022-10-07T23:56:32.478Z,10.69
2022-10-07T23:59:01.570Z,10.68
